Terminal Aerodrome Forecast
Issued by NWS Louisville, KY

Home | Current Version | Previous Version | Text Only | Print | Product List | Glossary On
Versions: 1 2 3 4 5 6 7 8 9 10 11 12 13 14 15
008
FTUS43 KLMK 141308 AAA
TAFSDF
TAF AMD
KSDF 141308Z 1413/1518 11008KT P6SM -SN OVC060
      TEMPO 1413/1415 2SM -SN BKN035
     FM141800 12007KT 5SM -SN BKN025
     FM142000 13008KT 2SM -SN BKN009
      TEMPO 1420/1424 1SM -SN BKN006
     FM150000 16007KT 4SM -SN BKN009
     FM150500 16007KT 5SM BR VCSH BKN012=

USA.gov is the U.S. government's official web portal to all federal, state and local government web resources and services.